Time;durP1;ratioP1;P1;durP2;ratioP2;P2;SDS_P1;SDS_P2;PMS_P1;PMS_P2;Temp;Humidity;BMP_temperature;BMP_pressure;BME280_temperature;BME280_humidity;BME280_pressure;Samples;Min_cycle;Max_cycle;Signal;HPM_P1;HPM_P2
2021/11/14 00:01:26;;;;;;;65.38;23.98;;;;;;;1.66;99.32;97555.84;4946281;29;20063;-60
2021/11/14 00:03:53;;;;;;;56.78;23.60;;;;;;;1.65;99.58;97554.19;4946435;28;20055;-61
2021/11/14 00:06:20;;;;;;;59.05;21.80;;;;;;;1.64;98.85;97558.06;4947579;28;20055;-62
2021/11/14 00:08:49;;;;;;;62.03;23.30;;;;;;;1.58;99.70;97559.25;4948308;28;20067;-60
2021/11/14 00:11:19;;;;;;;59.78;22.40;;;;;;;1.50;99.94;97550.63;4947506;28;20514;-61
2021/11/14 00:13:48;;;;;;;59.58;22.27;;;;;;;1.68;99.78;97556.31;4947801;28;20055;-62
2021/11/14 00:16:17;;;;;;;45.88;19.45;;;;;;;1.74;99.34;97560.59;4945966;29;20391;-60
2021/11/14 00:18:45;;;;;;;48.35;19.33;;;;;;;1.64;99.86;97552.59;4947674;29;20054;-60
2021/11/14 00:21:15;;;;;;;50.75;20.40;;;;;;;1.19;100.00;97480.53;4947114;28;20590;-60
2021/11/14 00:23:43;;;;;;;53.28;19.42;;;;;;;1.36;100.00;97522.50;4947748;29;20055;-63
2021/11/14 00:26:10;;;;;;;59.05;22.20;;;;;;;1.19;100.00;97486.78;4945779;29;20496;-60
2021/11/14 00:28:39;;;;;;;55.63;22.40;;;;;;;1.58;100.00;97559.25;4947524;28;20499;-60
2021/11/14 00:31:06;;;;;;;54.55;21.45;;;;;;;1.19;99.54;97475.06;4946934;29;20769;-63
2021/11/14 00:33:33;;;;;;;44.97;17.30;;;;;;;1.77;99.04;97552.59;4962378;28;20051;-60
2021/11/14 00:36:00;;;;;;;46.60;19.17;;;;;;;1.72;99.73;97543.72;4947195;29;20515;-60
2021/11/14 00:38:27;;;;;;;47.20;17.95;;;;;;;1.60;99.38;97535.19;4947627;29;20061;-61
2021/11/14 00:40:54;;;;;;;44.75;17.52;;;;;;;1.73;100.00;97534.41;4945749;29;20062;-62
2021/11/14 00:43:21;;;;;;;37.63;17.38;;;;;;;1.82;100.00;97549.78;4947648;29;20063;-61
2021/11/14 00:45:47;;;;;;;36.72;16.50;;;;;;;1.92;100.00;97549.59;4945758;29;20055;-64
2021/11/14 00:48:16;;;;;;;36.90;15.18;;;;;;;1.89;100.00;97541.19;4945482;28;20056;-60
2021/11/14 00:50:44;;;;;;;37.00;14.98;;;;;;;1.53;100.00;97472.81;4945808;29;20098;-61
2021/11/14 00:53:14;;;;;;;35.35;13.25;;;;;;;1.92;100.00;97543.31;4946159;28;20137;-60
2021/11/14 00:55:42;;;;;;;30.92;11.93;;;;;;;1.74;100.00;97509.50;4946703;29;20059;-59
2021/11/14 00:58:09;;;;;;;23.13;10.95;;;;;;;1.87;99.85;97507.91;4947081;29;20506;-60
2021/11/14 01:00:40;;;;;;;27.50;12.15;;;;;;;1.95;100.00;97545.44;4945266;29;20253;-60
2021/11/14 01:03:12;;;;;;;40.65;15.00;;;;;;;1.91;100.00;97525.31;4945341;29;20099;-60
2021/11/14 01:05:42;;;;;;;37.08;14.80;;;;;;;1.92;100.00;97537.84;4945197;29;20043;-59
2021/11/14 01:08:10;;;;;;;35.63;16.52;;;;;;;1.58;100.00;97478.19;4961505;28;20066;-59
2021/11/14 01:10:43;;;;;;;31.42;14.23;;;;;;;1.82;100.00;97521.69;4946381;28;20051;-62
2021/11/14 01:13:10;;;;;;;27.75;10.57;;;;;;;2.01;100.00;97546.97;4946343;29;20434;-59
2021/11/14 01:15:38;;;;;;;33.83;12.88;;;;;;;2.08;100.00;97530.97;4945438;29;20095;-59
2021/11/14 01:18:06;;;;;;;27.05;12.75;;;;;;;1.92;100.00;97494.16;4947032;29;20047;-59
2021/11/14 01:20:37;;;;;;;27.73;10.98;;;;;;;1.68;100.00;97471.69;4946064;29;20055;-62
2021/11/14 01:23:06;;;;;;;24.90;10.95;;;;;;;1.20;100.00;97400.31;4946481;29;20055;-59
2021/11/14 01:25:34;;;;;;;23.88;10.40;;;;;;;1.97;100.00;97535.03;4944814;29;20544;-60
2021/11/14 01:28:02;;;;;;;22.75;9.45;;;;;;;1.96;100.00;97544.34;4944745;29;20059;-59
2021/11/14 01:30:36;;;;;;;33.28;13.88;;;;;;;1.44;100.00;97461.78;4960036;28;20062;-61
2021/11/14 01:33:05;;;;;;;41.17;17.02;;;;;;;1.82;99.70;97494.38;4944861;28;20051;-63
2021/11/14 01:35:34;;;;;;;36.83;15.43;;;;;;;2.01;96.91;97514.19;4944281;29;20051;-61
2021/11/14 01:38:07;;;;;;;44.60;18.42;;;;;;;1.54;96.93;97461.59;4946452;28;20482;-60
2021/11/14 01:40:48;;;;;;;45.78;18.40;;;;;;;1.93;97.23;97537.53;4944510;29;20079;-60
2021/11/14 01:43:20;;;;;;;47.65;18.70;;;;;;;1.75;97.84;97515.78;4946282;28;20070;-61
2021/11/14 01:45:48;;;;;;;54.92;19.35;;;;;;;1.84;98.93;97531.19;4945743;28;20065;-61
2021/11/14 01:48:15;;;;;;;44.40;16.00;;;;;;;1.08;100.00;97463.53;4946087;29;20553;-61
2021/11/14 01:50:42;;;;;;;41.00;15.35;;;;;;;1.00;100.00;97456.03;4944551;29;20503;-63
2021/11/14 01:53:10;;;;;;;43.63;16.30;;;;;;;1.62;100.00;97532.97;4946333;28;20054;-61
2021/11/14 01:55:44;;;;;;;48.50;16.88;;;;;;;1.58;100.00;97540.16;4944025;29;20106;-60
2021/11/14 01:58:18;;;;;;;45.05;17.05;;;;;;;0.97;100.00;97429.38;4944871;29;20055;-60
2021/11/14 02:00:48;;;;;;;32.28;14.10;;;;;;;1.61;100.00;97531.34;4945097;28;20074;-62
2021/11/14 02:03:16;;;;;;;29.23;14.88;;;;;;;1.69;100.00;97538.84;4944233;29;20065;-60
2021/11/14 02:05:44;;;;;;;33.75;15.32;;;;;;;1.72;100.00;97532.78;4943739;28;20106;-61
2021/11/14 02:08:11;;;;;;;37.90;17.10;;;;;;;1.69;100.00;97527.94;4945338;28;20945;-61
2021/11/14 02:10:41;;;;;;;35.25;17.27;;;;;;;1.24;100.00;97445.78;4945504;29;20058;-62
2021/11/14 02:13:12;;;;;;;38.38;15.52;;;;;;;1.14;100.00;97437.78;4945567;28;20063;-60
2021/11/14 02:15:42;;;;;;;27.45;11.93;;;;;;;1.67;100.00;97530.16;4944456;28;20090;-61
2021/11/14 02:18:11;;;;;;;25.48;11.80;;;;;;;1.66;100.00;97517.63;4946146;29;20067;-63
2021/11/14 02:20:40;;;;;;;30.08;13.60;;;;;;;1.00;100.00;97428.75;4945433;29;20055;-62
2021/11/14 02:23:09;;;;;;;40.80;18.50;;;;;;;1.70;100.00;97513.16;4945396;28;20067;-60
2021/11/14 02:25:37;;;;;;;55.05;24.23;;;;;;;1.66;100.00;97501.22;4945397;29;20070;-59
2021/11/14 02:28:04;;;;;;;75.82;34.45;;;;;;;1.88;100.00;97513.06;4945316;28;20055;-62
2021/11/14 02:30:34;;;;;;;47.10;22.58;;;;;;;2.05;100.00;97517.94;4945520;29;20047;-60
2021/11/14 02:33:04;;;;;;;27.23;12.30;;;;;;;1.90;100.00;97463.63;4945556;28;20577;-63
2021/11/14 02:35:41;;;;;;;33.53;13.45;;;;;;;2.26;100.00;97513.66;4945805;29;20135;-60
2021/11/14 02:38:09;;;;;;;27.67;11.43;;;;;;;2.28;100.00;97514.97;4945536;29;20058;-60
2021/11/14 02:40:38;;;;;;;24.42;10.63;;;;;;;2.48;100.00;97509.06;4943756;28;20047;-61
2021/11/14 02:43:05;;;;;;;31.85;12.85;;;;;;;2.11;100.00;97429.28;4945224;29;20062;-61
2021/11/14 02:45:32;;;;;;;25.48;12.32;;;;;;;2.67;100.00;97506.19;4943901;28;20051;-61
2021/11/14 02:47:59;;;;;;;24.80;11.25;;;;;;;2.70;99.49;97502.84;4945117;28;20059;-61
2021/11/14 02:50:27;;;;;;;29.50;13.35;;;;;;;2.79;100.00;97506.47;4959855;28;20058;-62
2021/11/14 02:52:54;;;;;;;30.08;12.23;;;;;;;2.86;99.73;97509.59;4945163;29;20609;-61
2021/11/14 02:55:23;;;;;;;22.90;10.13;;;;;;;2.81;99.15;97507.75;4945462;28;20600;-63
2021/11/14 02:57:52;;;;;;;17.23;8.32;;;;;;;3.07;97.08;97500.56;4945461;28;20059;-62
2021/11/14 03:00:27;;;;;;;27.67;12.25;;;;;;;2.97;96.18;97500.00;4943560;29;20055;-62
2021/11/14 03:02:55;;;;;;;27.80;11.38;;;;;;;2.76;94.38;97475.06;4943354;29;20062;-61
2021/11/14 03:05:23;;;;;;;27.50;12.10;;;;;;;3.05;94.02;97512.97;4945206;29;20138;-61
2021/11/14 03:07:51;;;;;;;34.80;15.73;;;;;;;3.00;93.60;97510.34;4944806;29;20059;-61
2021/11/14 03:10:22;;;;;;;26.38;14.07;;;;;;;3.01;93.81;97512.75;4944238;28;20079;-61
2021/11/14 03:13:11;;;;;;;28.02;13.88;;;;;;;2.97;94.02;97527.38;4963190;28;20062;-61
2021/11/14 03:15:42;;;;;;;29.70;13.20;;;;;;;3.05;93.86;97512.97;4947698;29;20063;-61
2021/11/14 03:18:11;;;;;;;31.67;14.43;;;;;;;2.89;92.93;97493.34;4946941;29;20055;-60
2021/11/14 03:20:41;;;;;;;31.60;14.65;;;;;;;2.34;93.88;97425.50;4946750;29;20486;-61
2021/11/14 03:23:09;;;;;;;33.95;15.02;;;;;;;2.97;94.29;97510.97;4948688;28;20062;-61
2021/11/14 03:25:37;;;;;;;33.92;14.05;;;;;;;2.94;95.07;97511.59;4948307;29;20423;-60
2021/11/14 03:28:06;;;;;;;35.65;13.93;;;;;;;3.01;95.98;97511.94;4946391;29;20528;-63
2021/11/14 03:30:35;;;;;;;31.27;13.32;;;;;;;3.07;95.07;97514.25;4948388;29;20055;-61
2021/11/14 03:33:05;;;;;;;33.90;12.80;;;;;;;3.03;94.81;97509.72;4946933;28;20055;-60
2021/11/14 03:35:52;;;;;;;29.25;13.07;;;;;;;3.06;95.67;97514.56;4948203;28;20070;-60
2021/11/14 03:38:25;;;;;;;30.42;13.55;;;;;;;2.83;96.35;97482.81;4948200;29;20055;-60
2021/11/14 03:40:52;;;;;;;30.33;12.93;;;;;;;3.21;96.17;97505.97;4948172;28;20475;-62
2021/11/14 03:43:20;;;;;;;40.65;18.58;;;;;;;3.30;95.71;97506.03;4946536;29;20081;-60
2021/11/14 03:45:49;;;;;;;39.58;17.52;;;;;;;3.39;96.71;97507.72;4946579;29;20137;-60
2021/11/14 03:48:16;;;;;;;33.70;15.57;;;;;;;3.45;95.40;97505.63;4947836;29;20358;-61
2021/11/14 03:50:43;;;;;;;34.90;14.73;;;;;;;3.23;96.27;97470.06;4948317;29;20047;-61
2021/11/14 03:53:10;;;;;;;35.50;15.43;;;;;;;3.55;95.79;97511.66;4948576;29;20170;-61
2021/11/14 03:55:38;;;;;;;34.83;15.80;;;;;;;3.44;96.21;97488.41;4948066;29;20047;-63
2021/11/14 03:58:07;;;;;;;32.95;14.50;;;;;;;3.57;96.06;97487.53;4948165;28;20489;-61
2021/11/14 04:00:38;;;;;;;45.47;18.27;;;;;;;3.75;95.89;97513.84;4947587;29;20058;-64
2021/11/14 04:03:06;;;;;;;38.97;15.55;;;;;;;2.79;95.93;97336.88;4946344;28;20931;-62
2021/11/14 04:05:34;;;;;;;38.15;15.73;;;;;;;3.92;95.62;97500.22;4931143;28;20066;-63
2021/11/14 04:08:07;;;;;;;37.40;15.05;;;;;;;3.90;96.27;97497.03;4947768;28;20081;-62
2021/11/14 04:10:34;;;;;;;46.72;19.27;;;;;;;4.02;96.50;97510.91;4947965;28;20055;-61
2021/11/14 04:13:01;;;;;;;51.63;21.92;;;;;;;4.02;95.92;97499.97;4947914;29;20183;-61
2021/11/14 04:15:28;;;;;;;34.63;13.07;;;;;;;3.27;94.89;97395.25;4946474;28;20051;-61
2021/11/14 04:17:56;;;;;;;24.65;12.32;;;;;;;4.01;94.47;97506.56;4962428;28;20110;-61
2021/11/14 04:20:26;;;;;;;30.67;13.70;;;;;;;3.83;95.77;97496.66;4947531;29;20062;-60
2021/11/14 04:22:54;;;;;;;36.30;16.17;;;;;;;3.31;96.64;97434.53;4945351;28;20086;-60
2021/11/14 04:25:21;;;;;;;36.13;17.65;;;;;;;3.88;97.25;97510.22;4946103;29;20494;-60
2021/11/14 04:27:49;;;;;;;32.58;15.25;;;;;;;3.74;97.21;97468.44;4947478;29;20234;-61
2021/11/14 04:30:19;;;;;;;30.33;15.18;;;;;;;3.57;96.40;97440.16;4946443;29;20058;-62
2021/11/14 04:32:46;;;;;;;24.75;12.93;;;;;;;4.17;96.31;97502.25;4947329;29;20062;-62
2021/11/14 04:35:14;;;;;;;28.90;13.63;;;;;;;4.16;96.75;97506.13;4946060;28;20055;-61
2021/11/14 04:37:48;;;;;;;28.15;16.08;;;;;;;4.25;97.03;97498.72;4962008;28;20055;-61
2021/11/14 04:40:17;;;;;;;31.77;16.13;;;;;;;4.15;97.81;97504.53;4947426;29;20109;-63
2021/11/14 04:42:44;;;;;;;32.90;17.80;;;;;;;4.23;98.60;97494.69;4946045;29;20059;-62
2021/11/14 04:45:18;;;;;;;33.35;17.73;;;;;;;4.18;98.69;97487.44;4945227;29;20492;-60
2021/11/14 04:47:45;;;;;;;36.60;17.20;;;;;;;4.43;97.68;97494.91;4945522;29;20562;-64
2021/11/14 04:50:15;;;;;;;32.90;17.80;;;;;;;4.10;97.25;97447.09;4946330;28;20058;-60
2021/11/14 04:52:43;;;;;;;37.00;16.38;;;;;;;3.45;96.96;97325.72;4945391;29;20055;-60
2021/11/14 04:55:09;;;;;;;32.38;15.50;;;;;;;4.59;96.91;97504.31;4946193;29;20429;-62
2021/11/14 04:57:36;;;;;;;32.88;16.00;;;;;;;4.44;97.66;97495.72;4946229;29;20055;-61
2021/11/14 05:00:07;;;;;;;32.20;15.98;;;;;;;4.71;97.75;97508.34;4946706;29;20051;-61
2021/11/14 05:02:34;;;;;;;28.92;14.27;;;;;;;4.57;97.66;97512.03;4946839;29;20065;-60
2021/11/14 05:05:01;;;;;;;32.17;15.27;;;;;;;4.51;98.03;97502.34;4945140;29;20096;-61
2021/11/14 05:07:28;;;;;;;29.50;15.05;;;;;;;4.22;98.39;97461.00;4946553;28;20155;-63
2021/11/14 05:09:54;;;;;;;40.63;16.27;;;;;;;4.26;97.16;97466.66;4946635;29;20058;-61
2021/11/14 05:12:21;;;;;;;35.55;16.55;;;;;;;4.12;97.11;97411.97;4946163;29;20490;-61
2021/11/14 05:14:49;;;;;;;29.00;14.15;;;;;;;4.68;96.20;97501.56;4946292;29;20061;-63
2021/11/14 05:17:16;;;;;;;44.67;18.02;;;;;;;2.53;95.82;97160.97;4960768;28;20097;-60
2021/11/14 05:19:43;;;;;;;33.60;16.75;;;;;;;4.68;96.00;97503.50;4945509;29;20047;-61
2021/11/14 05:22:09;;;;;;;39.70;17.13;;;;;;;4.82;96.79;97507.69;4946314;29;20055;-61
2021/11/14 05:24:36;;;;;;;30.77;15.60;;;;;;;4.63;95.73;97466.84;4945999;29;20091;-61
2021/11/14 05:27:03;;;;;;;37.90;17.73;;;;;;;4.52;96.17;97451.84;4945168;28;20055;-62
2021/11/14 05:29:30;;;;;;;38.83;18.52;;;;;;;4.76;95.92;97478.03;4946467;29;20054;-62
2021/11/14 05:31:57;;;;;;;46.53;19.42;;;;;;;5.03;96.19;97516.09;4946246;29;20059;-60
2021/11/14 05:34:23;;;;;;;38.50;19.25;;;;;;;5.03;95.72;97513.34;4945258;28;20433;-61
2021/11/14 05:36:50;;;;;;;40.90;20.10;;;;;;;5.17;96.07;97519.50;4944942;29;20062;-61
2021/11/14 05:39:17;;;;;;;40.13;20.00;;;;;;;5.34;95.56;97516.75;4946125;29;20442;-62
2021/11/14 05:41:44;;;;;;;46.13;21.65;;;;;;;4.93;95.52;97448.63;4946093;29;20450;-63
2021/11/14 05:44:11;;;;;;;47.85;22.75;;;;;;;3.23;94.98;97169.00;4946089;29;20514;-63
2021/11/14 05:46:37;;;;;;;41.63;19.38;;;;;;;5.36;94.99;97484.28;4946400;29;20051;-65
2021/11/14 05:49:08;;;;;;;42.60;20.85;;;;;;;5.62;95.34;97515.25;4944096;28;20055;-60
2021/11/14 05:51:39;;;;;;;38.33;18.85;;;;;;;5.72;95.37;97523.16;4945782;29;20170;-61
2021/11/14 05:54:06;;;;;;;32.97;18.10;;;;;;;5.74;95.00;97512.63;4944190;29;20978;-60
2021/11/14 05:56:33;;;;;;;32.67;17.15;;;;;;;5.74;95.31;97496.13;4945734;29;20059;-61
2021/11/14 06:01:34;;;;;;;35.30;17.15;;;;;;;6.03;93.12;97532.78;4945725;28;20051;-64
2021/11/14 06:04:17;;;;;;;43.55;17.42;;;;;;;5.47;93.08;97442.38;4944184;29;20055;-61
2021/11/14 06:06:44;;;;;;;56.30;22.80;;;;;;;5.53;94.47;97440.28;4946821;29;20062;-63
2021/11/14 06:09:11;;;;;;;58.47;24.15;;;;;;;5.60;94.38;97459.78;4961931;28;20055;-62
2021/11/14 06:11:38;;;;;;;42.30;20.13;;;;;;;6.09;95.05;97536.16;4945310;29;20616;-61
2021/11/14 06:14:05;;;;;;;34.15;15.10;;;;;;;5.45;96.21;97408.16;4959814;28;20550;-61
2021/11/14 06:16:32;;;;;;;34.03;14.77;;;;;;;5.84;95.36;97468.31;4945931;29;20514;-61
2021/11/14 06:18:59;;;;;;;28.33;13.65;;;;;;;6.40;95.38;97525.66;4945484;28;20055;-61
2021/11/14 06:21:26;;;;;;;25.02;14.50;;;;;;;6.51;95.08;97529.66;4945283;28;20059;-61
2021/11/14 06:23:52;;;;;;;23.30;13.65;;;;;;;6.57;95.00;97536.56;4945453;29;20070;-60
2021/11/14 06:26:19;;;;;;;32.80;16.40;;;;;;;6.42;94.17;97517.88;4944937;29;20056;-61
2021/11/14 06:28:46;;;;;;;33.80;16.35;;;;;;;6.67;93.97;97536.19;4945773;29;20498;-60
2021/11/14 06:31:13;;;;;;;41.03;21.38;;;;;;;6.50;93.03;97502.44;4945158;29;20051;-63
2021/11/14 06:33:41;;;;;;;37.97;18.17;;;;;;;6.55;93.61;97510.50;4944175;28;20051;-61
2021/11/14 06:36:07;;;;;;;34.42;18.45;;;;;;;6.80;93.60;97546.13;4945395;28;20058;-62
2021/11/14 06:38:34;;;;;;;35.47;19.02;;;;;;;6.93;93.85;97545.09;4946168;28;20057;-62
2021/11/14 06:41:01;;;;;;;40.05;18.27;;;;;;;7.17;91.03;97545.25;4945371;29;20142;-62
2021/11/14 06:43:28;;;;;;;48.33;20.45;;;;;;;7.24;90.71;97544.72;4945535;29;20066;-61
2021/11/14 06:45:55;;;;;;;42.58;20.40;;;;;;;7.13;90.80;97543.47;4945307;28;20055;-63
2021/11/14 06:48:22;;;;;;;40.28;21.52;;;;;;;7.19;91.57;97537.44;4948984;29;20070;-63
2021/11/14 06:50:49;;;;;;;55.08;24.30;;;;;;;7.20;89.73;97494.16;4949040;29;20054;-61
2021/11/14 06:53:16;;;;;;;68.90;31.40;;;;;;;7.55;88.61;97545.88;4949167;29;20440;-63
2021/11/14 06:55:43;;;;;;;68.38;32.38;;;;;;;7.59;87.53;97541.28;4948314;29;20552;-62
2021/11/14 06:58:10;;;;;;;66.18;31.63;;;;;;;7.59;88.26;97551.50;4949322;29;20063;-63
2021/11/14 07:00:38;;;;;;;72.63;35.20;;;;;;;7.09;87.98;97446.13;4948432;29;20529;-63
2021/11/14 07:03:05;;;;;;;62.38;31.10;;;;;;;7.72;88.17;97556.75;4949019;29;20055;-62
2021/11/14 07:05:33;;;;;;;57.17;28.20;;;;;;;7.57;88.39;97513.25;4948604;29;20057;-62
2021/11/14 07:07:59;;;;;;;54.63;25.13;;;;;;;7.74;86.48;97532.38;4947257;29;20057;-61
2021/11/14 07:10:26;;;;;;;49.83;23.25;;;;;;;7.89;87.26;97554.97;4948512;29;20053;-62
2021/11/14 07:12:53;;;;;;;50.15;21.92;;;;;;;7.75;86.39;97500.09;4948845;29;20050;-61
2021/11/14 07:15:20;;;;;;;50.15;21.48;;;;;;;8.17;86.30;97545.69;4948726;29;20066;-62
2021/11/14 07:17:47;;;;;;;48.13;22.27;;;;;;;8.21;86.62;97545.81;4947672;29;20170;-62
2021/11/14 07:20:15;;;;;;;49.55;20.83;;;;;;;8.19;86.08;97520.53;4946761;29;20067;-63
2021/11/14 07:22:44;;;;;;;43.70;22.20;;;;;;;8.67;83.95;97548.19;4948369;29;20055;-63
2021/11/14 07:25:19;;;;;;;45.83;22.77;;;;;;;8.66;84.46;97541.06;4948238;29;20091;-63
2021/11/14 07:27:50;;;;;;;47.38;23.88;;;;;;;8.38;83.79;97480.22;4947149;28;20138;-61
2021/11/14 07:30:19;;;;;;;46.33;22.38;;;;;;;8.86;81.84;97506.97;4948297;29;20478;-60
2021/11/14 07:32:45;;;;;;;48.30;22.40;;;;;;;8.87;82.01;97514.09;4948442;29;20051;-62
2021/11/14 07:35:15;;;;;;;46.78;23.42;;;;;;;9.04;82.31;97569.91;4947448;29;20055;-63
2021/11/14 07:37:42;;;;;;;49.83;22.85;;;;;;;9.23;82.29;97555.50;4947868;28;20071;-62
2021/11/14 07:40:11;;;;;;;55.78;26.65;;;;;;;9.28;81.38;97524.81;4948621;29;20162;-62
2021/11/14 07:42:39;;;;;;;54.75;28.40;;;;;;;9.20;79.81;97495.38;4948441;29;20059;-61
2021/11/14 07:45:07;;;;;;;59.00;29.50;;;;;;;9.49;80.28;97536.53;4948333;29;20057;-62
2021/11/14 07:47:34;;;;;;;51.33;25.25;;;;;;;9.42;81.15;97521.69;4948165;29;20564;-62
2021/11/14 07:50:01;;;;;;;54.88;26.73;;;;;;;9.75;79.78;97534.13;4948396;29;20193;-61
2021/11/14 07:52:30;;;;;;;46.25;23.80;;;;;;;9.93;77.52;97540.94;4947746;28;20065;-62
2021/11/14 07:54:58;;;;;;;41.45;20.40;;;;;;;9.97;77.91;97539.09;4948063;28;20499;-63
2021/11/14 07:57:25;;;;;;;40.05;19.02;;;;;;;9.98;78.39;97537.09;4947257;28;20047;-62
2021/11/14 07:59:52;;;;;;;34.33;18.05;;;;;;;9.93;78.61;97543.69;4947800;29;20407;-61
2021/11/14 08:02:19;;;;;;;36.40;16.75;;;;;;;9.80;79.14;97489.56;4947693;28;20408;-61
2021/11/14 08:04:46;;;;;;;35.78;17.40;;;;;;;10.28;78.36;97536.38;4947713;29;20055;-61
2021/11/14 08:07:14;;;;;;;32.75;16.13;;;;;;;10.49;77.94;97550.78;4947445;29;20063;-63
2021/11/14 08:09:40;;;;;;;31.25;16.02;;;;;;;10.26;75.64;97479.72;4946092;29;20067;-62
2021/11/14 08:12:08;;;;;;;27.42;13.40;;;;;;;10.66;75.63;97528.25;4947129;29;20054;-63
2021/11/14 08:14:35;;;;;;;26.88;12.85;;;;;;;10.63;74.51;97504.03;4947526;28;20051;-62
2021/11/14 08:17:01;;;;;;;21.17;11.82;;;;;;;10.61;73.76;97547.91;4947386;29;20051;-60
2021/11/14 08:19:32;;;;;;;23.65;11.57;;;;;;;10.59;74.31;97530.81;4946387;29;20067;-62
2021/11/14 08:21:59;;;;;;;20.35;10.07;;;;;;;10.80;73.90;97546.34;4947239;29;20594;-61
2021/11/14 08:24:26;;;;;;;21.13;10.05;;;;;;;10.82;74.10;97544.03;4947763;28;20059;-62
2021/11/14 08:26:52;;;;;;;22.77;10.77;;;;;;;8.85;75.02;97229.16;4947300;29;20057;-64
2021/11/14 08:29:19;;;;;;;18.23;10.23;;;;;;;10.94;74.83;97530.09;4947985;28;20054;-62
2021/11/14 08:31:46;;;;;;;21.20;10.10;;;;;;;11.11;74.55;97546.31;4947154;29;20055;-63
2021/11/14 08:34:13;;;;;;;19.50;10.18;;;;;;;11.12;75.09;97542.38;4945844;29;20142;-61
2021/11/14 08:36:40;;;;;;;24.45;11.45;;;;;;;10.64;74.24;97472.38;4945764;29;20059;-61
2021/11/14 08:39:06;;;;;;;26.33;12.93;;;;;;;10.04;79.16;97547.56;4946986;28;20066;-62
2021/11/14 08:41:33;;;;;;;24.13;12.15;;;;;;;10.09;80.83;97533.50;4946818;29;20057;-62
2021/11/14 08:44:00;;;;;;;24.60;11.20;;;;;;;10.41;77.25;97485.28;4947821;29;20165;-62
2021/11/14 08:46:27;;;;;;;22.42;12.00;;;;;;;11.09;74.45;97532.00;4947030;29;20066;-62
2021/11/14 08:48:54;;;;;;;19.02;9.98;;;;;;;11.28;72.18;97524.53;4945484;29;20051;-62
2021/11/14 08:51:23;;;;;;;17.40;9.32;;;;;;;11.36;71.64;97539.34;4946375;29;20514;-61
2021/11/14 08:53:49;;;;;;;20.20;9.48;;;;;;;11.35;71.37;97502.47;4945704;29;20510;-61
2021/11/14 08:56:16;;;;;;;17.10;9.55;;;;;;;11.05;70.79;97520.81;4946559;28;20061;-63
2021/11/14 08:58:43;;;;;;;17.75;9.48;;;;;;;11.31;70.46;97529.34;4946755;28;20138;-62
2021/11/14 09:01:10;;;;;;;21.65;10.57;;;;;;;10.79;72.51;97478.25;4944887;28;20057;-63
2021/11/14 09:03:38;;;;;;;17.13;10.02;;;;;;;10.99;70.42;97427.22;4947318;29;20499;-63
2021/11/14 09:06:04;;;;;;;17.25;9.35;;;;;;;11.22;70.27;97536.28;4946685;28;20063;-64
2021/11/14 09:08:31;;;;;;;20.60;11.13;;;;;;;11.51;70.84;97521.81;4944462;28;20456;-62
2021/11/14 09:10:58;;;;;;;18.35;9.02;;;;;;;12.20;68.15;97510.56;4946574;29;20051;-63
2021/11/14 09:13:26;;;;;;;18.40;8.98;;;;;;;12.31;66.16;97494.88;4946706;28;20063;-63
2021/11/14 09:15:53;;;;;;;15.95;8.63;;;;;;;12.54;65.65;97514.31;4946482;29;20054;-63
2021/11/14 09:18:20;;;;;;;14.43;9.10;;;;;;;12.78;64.98;97502.78;4946375;28;20081;-64
2021/11/14 09:20:47;;;;;;;18.13;9.18;;;;;;;13.21;64.31;97505.88;4946620;28;20058;-62
2021/11/14 09:23:15;;;;;;;13.40;8.50;;;;;;;12.89;65.10;97503.75;4946200;28;20051;-63
2021/11/14 09:25:42;;;;;;;16.27;9.00;;;;;;;13.15;63.65;97510.13;4946065;29;20086;-64
2021/11/14 09:28:10;;;;;;;17.13;9.55;;;;;;;12.10;64.12;97402.84;4946130;29;20097;-64
2021/11/14 09:30:37;;;;;;;17.48;10.20;;;;;;;12.74;64.81;97496.38;4945877;28;20051;-61
2021/11/14 09:33:06;;;;;;;17.27;8.40;;;;;;;11.36;69.90;97497.75;4946322;29;20058;-61
2021/11/14 09:35:33;;;;;;;13.90;7.85;;;;;;;11.56;68.78;97446.63;4944273;29;20051;-63
2021/11/14 09:38:00;;;;;;;14.68;8.00;;;;;;;12.16;67.38;97493.00;4946300;29;20055;-63
2021/11/14 09:40:27;;;;;;;14.40;8.73;;;;;;;11.91;66.68;97441.78;4944940;29;20051;-62
2021/11/14 09:42:55;;;;;;;12.93;7.97;;;;;;;12.41;66.14;97488.69;4946043;29;20051;-63
2021/11/14 09:45:26;;;;;;;15.70;8.90;;;;;;;12.41;66.59;97493.47;4944319;28;20066;-62
2021/11/14 09:47:53;;;;;;;17.88;9.85;;;;;;;12.47;65.42;97470.53;4945618;29;20054;-62
2021/11/14 09:50:20;;;;;;;19.15;12.93;;;;;;;10.47;65.14;97140.44;4944127;29;20352;-63
2021/11/14 09:52:47;;;;;;;16.05;9.55;;;;;;;11.95;67.31;97487.06;4945179;28;20447;-65
2021/11/14 09:55:15;;;;;;;17.42;8.77;;;;;;;11.08;71.88;97491.59;4945388;29;20392;-63
2021/11/14 09:57:42;;;;;;;20.38;9.05;;;;;;;11.62;70.28;97489.56;4945410;29;20043;-63
2021/11/14 10:00:12;;;;;;;20.67;11.30;;;;;;;12.01;69.15;97485.59;4945908;28;20063;-64
2021/11/14 10:02:40;;;;;;;19.63;10.50;;;;;;;12.01;68.30;97480.06;4945519;29;20485;-63
2021/11/14 10:05:09;;;;;;;18.42;9.70;;;;;;;11.74;68.02;97436.72;4944128;29;20055;-65
2021/11/14 10:07:40;;;;;;;14.35;8.90;;;;;;;12.08;68.40;97478.19;4945421;29;20526;-66
2021/11/14 10:10:10;;;;;;;18.52;9.23;;;;;;;12.03;67.48;97449.91;4945879;28;20130;-65
2021/11/14 10:12:55;;;;;;;18.05;9.35;;;;;;;11.55;68.63;97392.31;4944453;29;20047;-66
2021/11/14 10:15:24;;;;;;;12.75;8.05;;;;;;;12.31;67.50;97467.09;4945872;29;20061;-66
2021/11/14 10:17:52;;;;;;;12.73;8.32;;;;;;;12.51;66.95;97454.72;4945489;29;20087;-65
2021/11/14 10:20:23;;;;;;;19.40;10.00;;;;;;;12.64;66.54;97458.09;4944705;28;20047;-65
2021/11/14 10:22:53;;;;;;;15.85;9.35;;;;;;;12.70;65.54;97451.84;4945482;28;20442;-66
2021/11/14 10:25:21;;;;;;;13.77;7.63;;;;;;;12.63;65.07;97396.13;4943532;29;20051;-65
2021/11/14 10:27:55;;;;;;;18.17;10.15;;;;;;;12.74;65.26;97399.09;4945493;29;20055;-65
2021/11/14 10:30:24;;;;;;;16.02;8.32;;;;;;;13.11;64.22;97455.63;4945244;29;20051;-69
2021/11/14 10:33:03;;;;;;;13.73;8.07;;;;;;;13.15;63.83;97435.03;4945182;29;20090;-68
2021/11/14 10:35:31;;;;;;;21.10;10.00;;;;;;;12.73;64.52;97367.72;4944178;29;20086;-68
2021/11/14 10:38:19;;;;;;;13.60;8.50;;;;;;;13.26;63.91;97435.19;4944046;28;20063;-69
2021/11/14 10:40:49;;;;;;;16.50;10.52;;;;;;;13.29;64.37;97432.44;4945315;29;20055;-64
2021/11/14 10:43:17;;;;;;;18.02;9.10;;;;;;;12.45;66.58;97428.44;4945766;28;20065;-66
2021/11/14 10:45:44;;;;;;;25.25;13.27;;;;;;;12.48;65.75;97372.13;4943408;29;20059;-65
2021/11/14 10:48:18;;;;;;;17.38;10.35;;;;;;;12.74;64.97;97382.41;4943438;29;20554;-66
2021/11/14 10:50:48;;;;;;;19.27;10.32;;;;;;;12.49;65.08;97342.38;4945060;28;20055;-65
2021/11/14 10:53:18;;;;;;;13.98;8.48;;;;;;;13.25;64.59;97417.69;4945654;29;20063;-65
2021/11/14 10:55:57;;;;;;;14.20;8.70;;;;;;;13.39;63.35;97409.50;4944806;28;20454;-65
2021/11/14 10:58:26;;;;;;;22.35;14.25;;;;;;;13.45;64.16;97410.78;4945609;28;20055;-67
2021/11/14 11:00:59;;;;;;;20.83;10.77;;;;;;;13.43;63.55;97413.16;4945126;29;20058;-67
2021/11/14 11:03:33;;;;;;;18.70;10.07;;;;;;;13.46;63.63;97417.97;4944339;29;20419;-66
2021/11/14 11:06:01;;;;;;;19.73;12.27;;;;;;;13.53;63.35;97406.88;4945089;29;20050;-66
2021/11/14 11:08:28;;;;;;;20.42;11.93;;;;;;;13.74;62.92;97411.09;4945035;29;20499;-67
2021/11/14 11:11:03;;;;;;;21.50;10.48;;;;;;;13.60;62.91;97406.97;4945194;28;20058;-67
2021/11/14 11:13:43;;;;;;;15.75;8.65;;;;;;;13.44;63.33;97398.03;4943848;29;20445;-66
2021/11/14 11:16:14;;;;;;;15.10;9.07;;;;;;;12.54;63.72;97283.66;4944495;29;20059;-66
2021/11/14 11:18:54;;;;;;;16.95;9.95;;;;;;;12.80;66.26;97406.75;4945654;29;20574;-67
2021/11/14 11:21:21;;;;;;;16.58;10.40;;;;;;;13.07;66.15;97394.41;4945284;29;20087;-67
2021/11/14 11:23:48;;;;;;;19.50;11.25;;;;;;;13.19;65.24;97396.94;4945413;28;20051;-67
2021/11/14 11:26:18;;;;;;;17.17;10.43;;;;;;;13.14;64.29;97394.50;4943255;29;20058;-66
2021/11/14 11:28:47;;;;;;;15.70;9.25;;;;;;;13.11;65.21;97400.00;4945305;29;20055;-67
2021/11/14 11:31:19;;;;;;;18.98;10.15;;;;;;;13.20;65.45;97406.09;4944532;28;20057;-67